Time;durP1;ratioP1;P1;durP2;ratioP2;P2;SDS_P1;SDS_P2;PMS_P1;PMS_P2;Temp;Humidity;BMP_temperature;BMP_pressure;BME280_temperature;BME280_humidity;BME280_pressure;Samples;Min_cycle;Max_cycle;Signal;HPM_P1;HPM_P2
2022/05/22 00:00:23;;;;;;;4.20;3.97;;;13.10;25.20;;;;;;5094906;28;20253;-68
2022/05/22 00:02:49;;;;;;;3.80;3.50;;;13.10;25.00;;;;;;5095092;28;20202;-69
2022/05/22 00:05:17;;;;;;;4.50;4.20;;;13.20;25.80;;;;;;5094660;28;20636;-69
2022/05/22 00:07:43;;;;;;;4.80;4.50;;;13.10;25.60;;;;;;5079319;28;20416;-69
2022/05/22 00:10:10;;;;;;;4.60;4.27;;;13.10;25.70;;;;;;5074504;28;20422;-69
2022/05/22 00:12:36;;;;;;;3.90;3.70;;;13.00;25.90;;;;;;5074446;28;20451;-68
2022/05/22 00:15:03;;;;;;;4.00;3.67;;;12.90;25.90;;;;;;5074672;28;20480;-68
2022/05/22 00:17:28;;;;;;;3.83;3.50;;;12.90;26.10;;;;;;5073123;28;20513;-69
2022/05/22 00:19:54;;;;;;;3.50;3.30;;;12.90;26.10;;;;;;5088969;28;20515;-68
2022/05/22 00:22:19;;;;;;;5.67;4.27;;;12.80;26.20;;;;;;5094694;28;20176;-70
2022/05/22 00:24:45;;;;;;;3.87;3.60;;;12.80;26.30;;;;;;5094597;28;20253;-69
2022/05/22 00:27:11;;;;;;;4.20;3.90;;;12.80;26.50;;;;;;5094454;28;20181;-69
2022/05/22 00:29:37;;;;;;;4.20;3.90;;;12.70;26.60;;;;;;5094865;28;20198;-69
2022/05/22 00:32:03;;;;;;;3.93;3.43;;;12.70;26.60;;;;;;5075632;28;20180;-68
2022/05/22 00:34:29;;;;;;;3.67;3.40;;;12.60;26.70;;;;;;5074172;28;20503;-69
2022/05/22 00:36:55;;;;;;;4.00;3.70;;;;;;;;;;5072860;28;20418;-69
2022/05/22 00:39:21;;;;;;;9.43;4.50;;;12.70;25.60;;;;;;5073886;28;20931;-69
2022/05/22 00:41:50;;;;;;;4.70;4.37;;;12.80;26.20;;;;;;5074110;28;20425;-69
2022/05/22 00:44:16;;;;;;;7.50;4.00;;;12.90;25.80;;;;;;5054186;28;20670;-69
2022/05/22 00:46:42;;;;;;;4.00;3.77;;;12.90;25.80;;;;;;5052656;28;20518;-69
2022/05/22 00:49:22;;;;;;;6.37;4.23;;;12.90;25.90;;;;;;5052628;28;20419;-69
2022/05/22 00:52:09;;;;;;;4.20;3.90;;;12.90;25.80;;;;;;5053708;28;20168;-69
2022/05/22 00:54:57;;;;;;;6.00;4.23;;;12.90;25.70;;;;;;5063985;28;20445;-69
2022/05/22 00:57:30;;;;;;;4.27;3.97;;;12.80;26.00;;;;;;5077885;28;20455;-68
2022/05/22 01:00:00;;;;;;;3.63;3.40;;;12.80;25.90;;;;;;5073752;28;20892;-69
2022/05/22 01:02:27;;;;;;;4.33;3.93;;;12.80;25.70;;;;;;5074049;28;20404;-69
2022/05/22 01:04:53;;;;;;;3.90;3.70;;;12.90;25.40;;;;;;5073100;28;20858;-69
2022/05/22 01:07:20;;;;;;;5.23;3.93;;;12.90;25.50;;;;;;5082611;28;20457;-69
2022/05/22 01:09:47;;;;;;;4.47;4.17;;;12.80;25.80;;;;;;5093579;28;20182;-69
2022/05/22 01:12:20;;;;;;;4.20;3.80;;;12.80;26.00;;;;;;5093522;28;20463;-69
2022/05/22 01:14:48;;;;;;;4.40;4.20;;;12.90;26.00;;;;;;5093742;28;20939;-69
2022/05/22 01:17:14;;;;;;;4.33;4.07;;;12.90;25.50;;;;;;5093056;28;20452;-69
2022/05/22 01:19:40;;;;;;;3.97;3.67;;;12.90;25.50;;;;;;5078339;28;20434;-69
2022/05/22 01:22:14;;;;;;;5.30;4.80;;;12.80;25.70;;;;;;5071730;28;20431;-68
2022/05/22 01:24:40;;;;;;;4.63;4.27;;;12.70;25.90;;;;;;5072966;28;20295;-69
2022/05/22 01:27:11;;;;;;;4.13;3.83;;;12.70;25.90;;;;;;5082658;28;20998;-68
2022/05/22 01:29:37;;;;;;;3.70;3.50;;;12.70;26.30;;;;;;5092188;28;20501;-69
2022/05/22 01:32:04;;;;;;;4.23;3.83;;;12.60;26.10;;;;;;5091630;28;20419;-69
2022/05/22 01:34:30;;;;;;;4.70;4.30;;;12.70;26.30;;;;;;5089426;28;20500;-68
2022/05/22 01:36:56;;;;;;;5.10;4.20;;;12.60;26.30;;;;;;5072903;28;21008;-68
2022/05/22 01:39:21;;;;;;;4.30;4.00;;;12.60;26.40;;;;;;5072968;28;20419;-69
2022/05/22 01:41:47;;;;;;;4.27;3.97;;;12.50;26.70;;;;;;5072684;28;20188;-69
2022/05/22 01:44:13;;;;;;;4.90;3.20;;;12.50;27.10;;;;;;5072743;28;20622;-69
2022/05/22 01:46:38;;;;;;;3.97;3.67;;;12.30;27.30;;;;;;5071788;28;20212;-68
2022/05/22 01:49:04;;;;;;;3.97;3.67;;;12.20;28.30;;;;;;5071195;28;20176;-69
2022/05/22 01:51:35;;;;;;;3.70;3.50;;;12.20;28.10;;;;;;5072878;28;20173;-69
2022/05/22 01:54:01;;;;;;;4.20;3.90;;;12.20;27.90;;;;;;5072890;28;20711;-69
2022/05/22 01:56:28;;;;;;;4.20;3.43;;;12.10;28.20;;;;;;5072967;28;20421;-69
2022/05/22 01:58:54;;;;;;;3.70;3.40;;;12.10;28.10;;;;;;5092379;28;20797;-68
2022/05/22 02:01:20;;;;;;;3.03;2.83;;;12.00;28.10;;;;;;5091677;28;20417;-69
2022/05/22 02:03:45;;;;;;;4.10;3.70;;;12.00;28.30;;;;;;5092217;28;20187;-69
2022/05/22 02:06:11;;;;;;;4.70;3.07;;;11.90;28.30;;;;;;5092592;28;20819;-68
2022/05/22 02:08:38;;;;;;;2.70;2.50;;;11.80;28.60;;;;;;5083586;28;20682;-69
2022/05/22 02:11:05;;;;;;;4.10;3.80;;;11.80;29.00;;;;;;5072461;28;20621;-69
2022/05/22 02:13:37;;;;;;;3.90;3.50;;;11.80;29.00;;;;;;5072724;28;20418;-68
2022/05/22 02:16:03;;;;;;;3.87;3.57;;;11.70;29.20;;;;;;5071021;28;20448;-69
2022/05/22 02:18:29;;;;;;;3.50;3.20;;;11.70;29.50;;;;;;5079522;28;20769;-69
2022/05/22 02:20:55;;;;;;;3.30;2.90;;;11.60;29.50;;;;;;5092345;28;20788;-69
2022/05/22 02:23:21;;;;;;;3.50;3.30;;;11.60;29.70;;;;;;5092249;28;20277;-70
2022/05/22 02:25:51;;;;;;;2.63;2.43;;;11.60;29.60;;;;;;5092692;28;20478;-69
2022/05/22 02:28:19;;;;;;;2.63;2.37;;;11.60;30.10;;;;;;5092377;28;20411;-70
2022/05/22 02:30:48;;;;;;;3.23;3.03;;;11.70;29.50;;;;;;5083697;28;20408;-69
2022/05/22 02:33:14;;;;;;;3.23;3.03;;;11.70;29.30;;;;;;5072426;28;20962;-69
2022/05/22 02:35:40;;;;;;;3.13;2.93;;;11.80;29.50;;;;;;5072044;28;20468;-68
2022/05/22 02:38:06;;;;;;;3.63;3.33;;;11.90;29.00;;;;;;5072503;28;20190;-69
2022/05/22 02:40:33;;;;;;;3.30;3.10;;;11.90;28.70;;;;;;5072085;28;20421;-69
2022/05/22 02:42:59;;;;;;;4.17;3.77;;;12.00;28.50;;;;;;5080900;28;20565;-70
2022/05/22 02:45:28;;;;;;;3.77;3.47;;;12.10;28.20;;;;;;5091859;28;20468;-69
2022/05/22 02:47:54;;;;;;;3.33;3.13;;;12.20;28.20;;;;;;5091918;28;20177;-69
2022/05/22 02:50:22;;;;;;;3.90;3.60;;;12.20;28.30;;;;;;5092498;28;20410;-70
2022/05/22 02:52:48;;;;;;;4.07;3.77;;;12.20;27.80;;;;;;5093901;28;20454;-70
2022/05/22 02:55:14;;;;;;;3.80;3.50;;;12.20;28.00;;;;;;5081242;28;20463;-70
2022/05/22 02:57:40;;;;;;;5.70;5.10;;;12.30;28.00;;;;;;5079570;28;20473;-69
2022/05/22 03:00:14;;;;;;;4.43;4.13;;;12.20;28.20;;;;;;5091896;28;20470;-69
2022/05/22 03:02:40;;;;;;;6.30;3.87;;;12.20;28.20;;;;;;5092523;28;20436;-69
2022/05/22 03:05:06;;;;;;;4.47;3.70;;;12.20;28.30;;;;;;5091625;28;20968;-69
2022/05/22 03:07:35;;;;;;;3.53;3.23;;;12.10;28.20;;;;;;5083916;28;20181;-69
2022/05/22 03:10:01;;;;;;;4.67;3.77;;;12.00;28.10;;;;;;5071585;28;20412;-69
2022/05/22 03:12:26;;;;;;;3.60;3.30;;;11.80;28.90;;;;;;5072995;28;20866;-68
2022/05/22 03:14:55;;;;;;;3.00;2.80;;;11.80;29.30;;;;;;5075251;28;20446;-68
2022/05/22 03:17:21;;;;;;;2.70;2.50;;;11.80;29.40;;;;;;5074976;28;20183;-68
2022/05/22 03:19:47;;;;;;;3.70;3.40;;;11.70;29.70;;;;;;5085206;28;20423;-68
2022/05/22 03:22:14;;;;;;;5.90;3.97;;;11.70;30.30;;;;;;5095492;28;20411;-68
2022/05/22 03:24:40;;;;;;;3.17;2.87;;;11.60;30.70;;;;;;5094054;28;20536;-69
2022/05/22 03:27:10;;;;;;;3.90;3.10;;;11.60;30.90;;;;;;5095920;28;20455;-68
2022/05/22 03:29:36;;;;;;;3.70;3.40;;;11.50;31.10;;;;;;5095698;28;20450;-69
2022/05/22 03:32:03;;;;;;;3.60;3.23;;;11.20;32.00;;;;;;5091392;28;20443;-69
2022/05/22 03:34:28;;;;;;;4.00;3.70;;;11.30;32.10;;;;;;5094898;28;20950;-70
2022/05/22 03:36:54;;;;;;;4.03;3.63;;;11.40;32.20;;;;;;5096233;28;20530;-69
2022/05/22 03:39:20;;;;;;;2.90;2.70;;;11.50;32.30;;;;;;5095227;28;20272;-69
2022/05/22 03:41:46;;;;;;;3.23;2.93;;;11.60;32.00;;;;;;5094034;28;20484;-68
2022/05/22 03:44:11;;;;;;;6.53;3.30;;;11.60;31.20;;;;;;5080903;28;20643;-69
2022/05/22 03:46:37;;;;;;;3.37;3.07;;;11.60;30.70;;;;;;5075079;28;20198;-69
2022/05/22 03:49:03;;;;;;;2.87;2.67;;;11.60;30.60;;;;;;5074961;28;20175;-69
2022/05/22 03:51:28;;;;;;;3.87;3.57;;;11.70;30.60;;;;;;5075034;28;20534;-69
2022/05/22 03:53:54;;;;;;;3.60;3.30;;;11.60;30.70;;;;;;5074766;28;20423;-69
2022/05/22 03:56:21;;;;;;;3.07;2.80;;;11.70;30.60;;;;;;5089237;28;20311;-69
2022/05/22 03:58:47;;;;;;;3.23;2.93;;;11.70;30.20;;;;;;5094821;28;20238;-68
2022/05/22 04:01:13;;;;;;;3.40;3.10;;;11.70;30.20;;;;;;5094859;28;20409;-70
2022/05/22 04:03:39;;;;;;;3.47;2.97;;;11.70;30.20;;;;;;5093932;28;20498;-69
2022/05/22 04:06:07;;;;;;;3.43;3.20;;;11.70;30.00;;;;;;5094554;28;20505;-68
2022/05/22 04:08:33;;;;;;;3.93;3.60;;;11.70;30.00;;;;;;5094194;28;20183;-68
2022/05/22 04:11:06;;;;;;;4.10;3.80;;;11.70;30.20;;;;;;5094742;28;20434;-69
2022/05/22 04:13:32;;;;;;;3.73;3.20;;;11.80;30.20;;;;;;5094680;28;20513;-69
2022/05/22 04:15:57;;;;;;;3.13;2.83;;;11.80;29.80;;;;;;5094377;28;20515;-69
2022/05/22 04:18:23;;;;;;;3.40;3.20;;;11.80;29.90;;;;;;5091883;28;20418;-69
2022/05/22 04:20:48;;;;;;;3.50;3.30;;;11.90;29.50;;;;;;5074594;28;20695;-69
2022/05/22 04:25:59;;;;;;;3.60;3.27;;;12.00;29.00;;;;;;5074298;28;20581;-69
2022/05/22 04:28:27;;;;;;;3.30;2.90;;;12.00;29.00;;;;;;5073678;28;20421;-68
2022/05/22 04:30:53;;;;;;;2.97;2.40;;;12.00;29.20;;;;;;5077925;28;20434;-69
2022/05/22 04:33:19;;;;;;;3.30;3.00;;;12.10;29.10;;;;;;5094481;28;20414;-69
2022/05/22 04:35:45;;;;;;;4.43;2.87;;;11.60;30.70;;;;;;5093252;28;20778;-68
2022/05/22 04:38:11;;;;;;;3.43;3.13;;;11.30;32.10;;;;;;5096233;22;20528;-69
2022/05/22 04:40:41;;;;;;;3.60;3.13;;;11.20;33.20;;;;;;5054253;28;20666;-69
2022/05/22 04:43:09;;;;;;;5.10;2.87;;;11.20;33.70;;;;;;5054206;28;20415;-70
2022/05/22 04:45:38;;;;;;;3.43;3.13;;;11.10;34.30;;;;;;5054717;28;20457;-70
2022/05/22 04:48:04;;;;;;;3.87;2.77;;;11.20;33.90;;;;;;5062974;28;20460;-68
2022/05/22 04:50:29;;;;;;;3.30;3.00;;;11.30;34.10;;;;;;5073442;28;20409;-68
2022/05/22 04:52:55;;;;;;;3.20;3.00;;;11.40;32.50;;;;;;5073435;28;20470;-69
2022/05/22 04:55:21;;;;;;;3.40;3.10;;;11.70;32.40;;;;;;5072371;28;20666;-69
2022/05/22 04:57:46;;;;;;;3.87;3.50;;;12.60;32.80;;;;;;5073170;28;20663;-70
2022/05/22 05:00:12;;;;;;;6.47;6.07;;;13.90;27.40;;;;;;5073948;28;20183;-70
2022/05/22 05:02:38;;;;;;;8.30;7.70;;;15.20;23.50;;;;;;5072057;28;20579;-69
2022/05/22 05:05:05;;;;;;;9.60;9.10;;;16.40;21.50;;;;;;5073056;28;20422;-70
2022/05/22 05:07:32;;;;;;;11.20;10.30;;;17.60;18.70;;;;;;5072782;28;20202;-70
2022/05/22 05:09:58;;;;;;;11.87;11.27;;;18.50;18.60;;;;;;5073112;28;20454;-70
2022/05/22 05:12:23;;;;;;;12.10;11.60;;;19.30;16.10;;;;;;5066879;28;20424;-71
2022/05/22 05:14:49;;;;;;;12.33;11.73;;;18.60;15.60;;;;;;5061280;28;20421;-72
2022/05/22 05:17:17;;;;;;;12.10;11.60;;;18.20;15.30;;;;;;5053086;28;20195;-69
2022/05/22 05:19:43;;;;;;;12.60;12.10;;;18.80;16.20;;;;;;5053462;28;20217;-70
2022/05/22 05:22:09;;;;;;;13.40;12.80;;;20.20;14.00;;;;;;5069123;28;20424;-68
2022/05/22 05:24:34;;;;;;;14.30;13.70;;;20.50;11.60;;;;;;5072506;28;20416;-69
2022/05/22 05:27:01;;;;;;;14.30;13.70;;;21.20;10.90;;;;;;5072926;28;20431;-70
2022/05/22 05:29:27;;;;;;;14.93;14.23;;;21.60;10.80;;;;;;5072300;28;20162;-70
2022/05/22 05:31:52;;;;;;;14.50;13.57;;;20.30;10.10;;;;;;5072525;28;20775;-70
2022/05/22 05:34:18;;;;;;;13.90;13.30;;;19.50;12.80;;;;;;5072445;28;20408;-70
2022/05/22 05:36:44;;;;;;;14.40;13.40;;;20.30;10.90;;;;;;5087849;28;20247;-70
2022/05/22 05:39:10;;;;;;;13.50;13.00;;;19.30;11.60;;;;;;5071977;28;20448;-69
2022/05/22 05:41:36;;;;;;;13.83;13.23;;;20.20;11.80;;;;;;5072460;28;20584;-70
2022/05/22 05:44:06;;;;;;;13.60;13.00;;;18.50;12.10;;;;;;5072717;28;20785;-70
2022/05/22 05:46:33;;;;;;;13.80;13.10;;;18.10;12.60;;;;;;5072751;28;20547;-69
2022/05/22 05:48:59;;;;;;;13.20;12.70;;;17.30;15.20;;;;;;5073545;28;20498;-72
2022/05/22 05:51:25;;;;;;;13.00;12.50;;;19.30;14.20;;;;;;5072657;28;20500;-72
2022/05/22 05:53:51;;;;;;;14.00;13.30;;;19.40;12.50;;;;;;5087908;28;20829;-71
2022/05/22 05:56:16;;;;;;;14.30;13.50;;;21.00;11.50;;;;;;5072136;28;20412;-71
2022/05/22 05:58:42;;;;;;;13.73;13.13;;;22.50;9.70;;;;;;5071711;28;20201;-71
2022/05/22 06:01:10;;;;;;;14.43;13.83;;;23.90;7.90;;;;;;5072100;28;20543;-71
2022/05/22 06:03:36;;;;;;;14.90;14.30;;;24.60;6.40;;;;;;5071805;28;20182;-71
2022/05/22 06:06:02;;;;;;;14.40;13.80;;;24.90;5.80;;;;;;5087606;28;20452;-72
2022/05/22 06:08:27;;;;;;;14.83;14.13;;;25.10;5.30;;;;;;5071447;28;20687;-71
2022/05/22 06:10:53;;;;;;;14.40;13.80;;;23.80;5.20;;;;;;5072168;28;20185;-71
2022/05/22 06:13:19;;;;;;;14.80;14.20;;;24.00;6.80;;;;;;5072578;28;20510;-72
2022/05/22 06:15:44;;;;;;;14.90;14.30;;;22.80;7.10;;;;;;5072077;28;20178;-71
2022/05/22 06:18:10;;;;;;;15.07;14.00;;;23.00;6.00;;;;;;5071457;28;20451;-71
2022/05/22 06:20:36;;;;;;;14.30;13.70;;;22.20;6.90;;;;;;5071850;28;20186;-72
2022/05/22 06:23:03;;;;;;;15.20;14.50;;;22.10;9.20;;;;;;5087184;28;20408;-71
2022/05/22 06:25:29;;;;;;;14.73;14.10;;;22.80;6.60;;;;;;5072051;28;20564;-71
2022/05/22 06:27:54;;;;;;;14.40;13.80;;;22.20;7.80;;;;;;5071436;28;20451;-70
2022/05/22 06:30:22;;;;;;;12.90;12.30;;;19.70;9.80;;;;;;5071908;28;20174;-71
2022/05/22 06:32:48;;;;;;;14.17;13.30;;;19.50;11.70;;;;;;5071720;28;20198;-71
2022/05/22 06:35:15;;;;;;;13.20;12.50;;;18.70;12.40;;;;;;5073291;28;20904;-72
2022/05/22 06:37:41;;;;;;;13.13;12.53;;;18.60;14.00;;;;;;5073068;28;20228;-70
2022/05/22 06:40:08;;;;;;;14.10;13.50;;;19.60;13.20;;;;;;5072623;28;20425;-69
2022/05/22 06:42:42;;;;;;;13.83;13.03;;;19.90;12.00;;;;;;5087010;28;20170;-72
2022/05/22 06:45:14;;;;;;;14.10;13.50;;;21.20;11.10;;;;;;5073108;28;20411;-70
2022/05/22 06:47:42;;;;;;;14.43;13.83;;;22.20;9.10;;;;;;5090043;28;20472;-70
2022/05/22 06:50:11;;;;;;;14.70;14.00;;;21.60;9.30;;;;;;5076048;28;20401;-70
2022/05/22 06:52:38;;;;;;;14.00;13.40;;;21.80;8.80;;;;;;5080759;28;20514;-70
2022/05/22 06:55:05;;;;;;;13.40;12.80;;;20.90;10.30;;;;;;5079814;28;20781;-70
2022/05/22 06:57:32;;;;;;;13.20;12.70;;;21.40;10.40;;;;;;5079458;28;20432;-70
2022/05/22 06:59:59;;;;;;;14.37;13.73;;;22.10;9.00;;;;;;5079376;28;20444;-69
2022/05/22 07:02:29;;;;;;;14.00;13.40;;;21.70;9.30;;;;;;5080426;28;20443;-70
2022/05/22 07:05:01;;;;;;;13.10;12.60;;;22.70;9.40;;;;;;5077781;28;20423;-69
2022/05/22 07:07:27;;;;;;;14.80;14.10;;;22.30;9.20;;;;;;5077425;28;20497;-70
2022/05/22 07:09:53;;;;;;;14.47;13.77;;;23.30;7.90;;;;;;5077926;28;20519;-70
2022/05/22 07:12:19;;;;;;;14.00;13.50;;;24.60;6.40;;;;;;5085389;28;20183;-69
2022/05/22 07:14:48;;;;;;;15.30;14.30;;;24.10;5.70;;;;;;5055333;28;20488;-69
2022/05/22 07:17:15;;;;;;;14.23;13.73;;;25.50;5.60;;;;;;5054807;28;20226;-70
2022/05/22 07:19:45;;;;;;;14.50;14.00;;;26.40;4.50;;;;;;5053819;28;20424;-70
2022/05/22 07:22:11;;;;;;;14.73;14.13;;;27.60;3.00;;;;;;5059577;28;20431;-69
2022/05/22 07:24:37;;;;;;;15.07;14.37;;;26.90;2.70;;;;;;5075097;28;20400;-70
2022/05/22 07:27:03;;;;;;;14.80;14.20;;;27.20;2.80;;;;;;5073212;28;20932;-68
2022/05/22 07:29:29;;;;;;;14.83;14.23;;;27.30;2.90;;;;;;5070030;28;20465;-70
2022/05/22 07:31:56;;;;;;;15.63;15.03;;;26.20;2.80;;;;;;5071139;28;20439;-70
2022/05/22 07:34:24;;;;;;;14.93;14.20;;;24.30;5.10;;;;;;5071110;28;20470;-69
2022/05/22 07:36:54;;;;;;;15.17;14.50;;;25.50;4.60;;;;;;5070710;28;20461;-69
2022/05/22 07:39:20;;;;;;;15.47;14.80;;;24.00;5.00;;;;;;5070374;28;20424;-72
2022/05/22 07:41:46;;;;;;;15.37;14.67;;;23.90;5.60;;;;;;5071388;28;20496;-71
2022/05/22 07:44:11;;;;;;;14.90;14.30;;;23.90;6.20;;;;;;5070543;28;20186;-71
2022/05/22 07:46:37;;;;;;;15.57;14.83;;;24.30;6.60;;;;;;5071707;28;20198;-71
2022/05/22 07:49:03;;;;;;;14.60;14.10;;;23.80;7.20;;;;;;5072839;28;20284;-74
2022/05/22 07:51:28;;;;;;;15.40;14.70;;;24.00;6.80;;;;;;5072995;28;20644;-71
2022/05/22 07:53:54;;;;;;;14.33;13.80;;;23.40;7.70;;;;;;5070821;28;20421;-69
2022/05/22 07:56:22;;;;;;;14.70;14.10;;;24.50;6.50;;;;;;5070493;28;20186;-71
2022/05/22 07:58:50;;;;;;;15.27;14.57;;;24.70;5.80;;;;;;5069398;28;20208;-71
2022/05/22 08:01:16;;;;;;;15.70;15.00;;;25.10;5.80;;;;;;5071079;28;20510;-69
2022/05/22 08:03:42;;;;;;;15.33;14.70;;;24.50;5.60;;;;;;5071315;28;20420;-70
2022/05/22 08:06:08;;;;;;;14.63;14.13;;;25.60;5.10;;;;;;5071261;28;20475;-71
2022/05/22 08:08:34;;;;;;;14.40;13.80;;;26.00;4.10;;;;;;5070566;28;20260;-69
2022/05/22 08:10:59;;;;;;;14.83;14.23;;;25.50;3.90;;;;;;5071914;28;20182;-71
2022/05/22 08:13:26;;;;;;;15.23;14.43;;;23.20;6.50;;;;;;5069564;28;20845;-72
2022/05/22 08:15:52;;;;;;;13.47;12.97;;;23.60;7.30;;;;;;5064048;28;20239;-70
2022/05/22 08:18:18;;;;;;;15.43;14.43;;;24.60;6.80;;;;;;5075467;28;20447;-70
2022/05/22 08:20:44;;;;;;;14.63;13.77;;;25.60;5.50;;;;;;5080570;28;20424;-71
2022/05/22 08:23:15;;;;;;;14.27;13.67;;;26.30;4.50;;;;;;5060330;28;20214;-69
2022/05/22 08:25:40;;;;;;;14.77;14.17;;;26.80;3.70;;;;;;5050184;28;21015;-69
2022/05/22 08:28:06;;;;;;;15.03;14.23;;;26.50;4.10;;;;;;5049342;28;20545;-71
2022/05/22 08:30:32;;;;;;;15.10;14.50;;;25.40;3.50;;;;;;5049597;28;20184;-71
2022/05/22 08:32:58;;;;;;;14.87;14.17;;;24.40;6.10;;;;;;5049285;28;20186;-70
2022/05/22 08:35:32;;;;;;;13.40;12.90;;;24.40;6.50;;;;;;5049586;28;20439;-71
2022/05/22 08:37:59;;;;;;;13.70;13.20;;;24.90;6.10;;;;;;5047803;28;20459;-71
2022/05/22 08:40:28;;;;;;;13.30;12.80;;;24.90;6.30;;;;;;5064621;28;20432;-70
2022/05/22 08:43:13;;;;;;;14.00;13.23;;;25.00;5.60;;;;;;5066616;28;20432;-74
2022/05/22 08:45:51;;;;;;;13.40;12.90;;;24.20;6.80;;;;;;5069316;28;20455;-69
2022/05/22 08:48:33;;;;;;;14.40;13.80;;;24.40;7.00;;;;;;5068692;28;20531;-69
2022/05/22 08:51:00;;;;;;;14.30;13.70;;;23.70;6.50;;;;;;5069130;28;20455;-70
2022/05/22 08:53:35;;;;;;;14.10;13.50;;;22.80;8.90;;;;;;5067917;28;20802;-68
2022/05/22 08:59:10;;;;;;;13.80;13.20;;;23.50;8.20;;;;;;5068481;28;20490;-69
2022/05/22 09:02:08;;;;;;;13.90;13.40;;;23.50;7.60;;;;;;5069337;28;20481;-70
2022/05/22 09:05:05;;;;;;;13.83;13.23;;;23.10;7.80;;;;;;5032252;28;20437;-69
2022/05/22 09:07:48;;;;;;;13.13;12.63;;;23.00;8.30;;;;;;5068794;28;20463;-69
2022/05/22 09:10:22;;;;;;;12.73;12.13;;;22.80;8.80;;;;;;5067615;28;20507;-69
2022/05/22 09:13:15;;;;;;;13.57;12.93;;;22.40;9.20;;;;;;5068628;28;20419;-70
2022/05/22 09:15:48;;;;;;;13.80;13.23;;;22.40;9.20;;;;;;5064125;28;20444;-71
2022/05/22 09:18:27;;;;;;;13.03;12.53;;;22.20;9.10;;;;;;5056529;28;20471;-69
2022/05/22 09:21:00;;;;;;;12.63;12.13;;;22.10;9.00;;;;;;5052459;28;21028;-73
2022/05/22 09:23:56;;;;;;;12.70;12.20;;;22.30;9.20;;;;;;5051726;28;20428;-70
2022/05/22 09:26:36;;;;;;;12.20;11.80;;;22.40;9.20;;;;;;5053071;28;20463;-72
2022/05/22 09:29:01;;;;;;;13.23;12.63;;;22.70;9.40;;;;;;5068588;28;20452;-72
2022/05/22 09:31:49;;;;;;;13.80;13.30;;;22.90;8.80;;;;;;5073905;28;20412;-70
2022/05/22 09:34:49;;;;;;;12.93;12.43;;;22.80;8.20;;;;;;5072530;28;20268;-71
2022/05/22 09:37:20;;;;;;;13.83;13.17;;;23.10;8.50;;;;;;5072029;28;20455;-70
2022/05/22 09:40:00;;;;;;;13.83;13.23;;;22.70;9.40;;;;;;5072423;28;20893;-70
2022/05/22 09:42:54;;;;;;;13.07;12.40;;;22.80;8.70;;;;;;5088019;28;20891;-70
2022/05/22 09:45:47;;;;;;;11.97;11.57;;;23.00;9.10;;;;;;5072317;28;20742;-70
2022/05/22 09:48:16;;;;;;;13.50;12.93;;;23.30;7.70;;;;;;5072049;28;20438;-72
2022/05/22 09:51:03;;;;;;;14.03;13.17;;;23.00;7.40;;;;;;5072252;28;20412;-69
2022/05/22 09:53:41;;;;;;;11.90;11.37;;;22.90;8.40;;;;;;5058436;28;20421;-70
2022/05/22 09:56:36;;;;;;;12.93;12.43;;;23.00;6.80;;;;;;5051641;28;20417;-70
2022/05/22 09:59:10;;;;;;;13.40;12.90;;;23.30;5.70;;;;;;5051932;28;20432;-70
2022/05/22 10:01:50;;;;;;;13.23;12.73;;;23.00;5.90;;;;;;5052403;28;20412;-71
2022/05/22 10:04:41;;;;;;;14.03;13.43;;;22.60;6.20;;;;;;5052304;28;20495;-70
2022/05/22 10:07:32;;;;;;;13.10;12.60;;;22.50;7.50;;;;;;5051826;28;20547;-70
2022/05/22 10:10:10;;;;;;;13.77;13.20;;;22.60;5.80;;;;;;5051816;28;20559;-71
2022/05/22 10:12:53;;;;;;;14.40;13.70;;;22.80;6.90;;;;;;5052376;28;20500;-71
2022/05/22 10:15:37;;;;;;;13.70;13.20;;;22.80;6.80;;;;;;5052132;28;20773;-70
2022/05/22 10:18:05;;;;;;;13.00;12.50;;;22.70;7.10;;;;;;5051484;28;20490;-72
2022/05/22 10:20:34;;;;;;;14.23;13.33;;;22.80;6.70;;;;;;5051717;28;20867;-72
2022/05/22 10:23:12;;;;;;;13.20;12.70;;;23.10;5.80;;;;;;5050541;28;20417;-71
2022/05/22 10:26:02;;;;;;;14.03;13.43;;;23.50;4.30;;;;;;5052020;28;20695;-72
2022/05/22 10:28:43;;;;;;;13.60;13.10;;;23.70;3.00;;;;;;5050673;28;20463;-69
2022/05/22 10:31:18;;;;;;;14.03;13.43;;;23.90;1.30;;;;;;5050532;28;20424;-70
2022/05/22 10:34:14;;;;;;;14.47;13.80;;;24.20;1.20;;;;;;5051833;28;20470;-71
2022/05/22 10:36:51;;;;;;;13.73;13.07;;;23.90;3.30;;;;;;5051741;28;20413;-71
2022/05/22 10:39:17;;;;;;;13.70;13.00;;;24.00;2.20;;;;;;5074692;22;20583;-71
2022/05/22 10:44:52;;;;;;;13.20;12.60;;;23.90;1.30;;;;;;5052203;28;20476;-71
2022/05/22 10:47:31;;;;;;;13.30;12.80;;;24.30;1.20;;;;;;5051284;28;20457;-71
2022/05/22 10:49:59;;;;;;;13.60;13.10;;;24.00;2.30;;;;;;5051624;28;20409;-69
2022/05/22 10:52:30;;;;;;;13.23;12.73;;;24.10;1.00;;;;;;5051663;28;20413;-70
2022/05/22 10:54:57;;;;;;;13.60;13.10;;;24.20;2.70;;;;;;5051531;28;20498;-70
2022/05/22 10:57:28;;;;;;;13.50;12.90;;;24.40;2.60;;;;;;5051493;28;20902;-70
2022/05/22 10:59:54;;;;;;;14.33;13.83;;;24.50;1.90;;;;;;5050270;28;20433;-69
2022/05/22 11:02:26;;;;;;;14.60;14.00;;;24.40;2.70;;;;;;5051585;28;20421;-69
2022/05/22 11:04:57;;;;;;;13.83;13.33;;;24.20;2.00;;;;;;5051524;28;20417;-69
2022/05/22 11:07:41;;;;;;;13.47;12.97;;;24.30;1.20;;;;;;5051257;28;20492;-68
2022/05/22 11:10:27;;;;;;;13.33;12.83;;;24.40;1.30;;;;;;5051564;28;20472;-69
2022/05/22 11:13:03;;;;;;;14.13;13.63;;;24.40;1.00;;;;;;5051440;28;20431;-69
2022/05/22 11:15:34;;;;;;;13.93;13.43;;;24.20;1.00;;;;;;5051459;28;20845;-69
2022/05/22 11:18:12;;;;;;;13.07;12.67;;;24.20;1.00;;;;;;5049844;28;20432;-70
2022/05/22 11:20:45;;;;;;;13.90;13.40;;;24.00;1.00;;;;;;5051342;28;21045;-69
2022/05/22 11:23:27;;;;;;;13.03;12.53;;;23.70;1.00;;;;;;5051333;28;20437;-69
2022/05/22 11:26:22;;;;;;;13.07;12.63;;;23.70;1.70;;;;;;5050043;28;20496;-68
2022/05/22 11:29:00;;;;;;;13.73;13.13;;;23.80;1.00;;;;;;5051063;28;20452;-69
2022/05/22 11:31:41;;;;;;;13.17;12.67;;;23.90;1.00;;;;;;5051441;28;20500;-69
2022/05/22 11:34:37;;;;;;;13.50;13.00;;;24.00;1.40;;;;;;5053720;28;20393;-70
2022/05/22 11:37:26;;;;;;;13.50;13.00;;;24.30;1.20;;;;;;5054834;28;20424;-69
2022/05/22 11:40:18;;;;;;;13.30;12.70;;;24.50;2.00;;;;;;5054898;28;20401;-71
2022/05/22 11:42:44;;;;;;;13.23;12.73;;;24.60;1.40;;;;;;5053721;28;20417;-70
2022/05/22 11:45:27;;;;;;;13.50;13.00;;;24.90;1.00;;;;;;5053532;28;20417;-70
2022/05/22 11:48:20;;;;;;;13.50;13.00;;;24.90;1.00;;;;;;5053172;28;20224;-70
2022/05/22 11:51:23;;;;;;;13.17;12.67;;;24.30;1.00;;;;;;5053559;28;20787;-70
2022/05/22 11:54:16;;;;;;;13.30;12.80;;;24.40;1.00;;;;;;5053351;28;20413;-70
2022/05/22 11:57:09;;;;;;;13.43;12.93;;;24.40;1.00;;;;;;5055096;28;20417;-70
2022/05/22 11:59:38;;;;;;;14.03;13.43;;;24.60;1.00;;;;;;5055240;28;20424;-70
2022/05/22 12:02:14;;;;;;;13.80;13.30;;;24.70;1.00;;;;;;5053978;28;20417;-70
2022/05/22 12:05:04;;;;;;;13.93;13.43;;;24.50;1.00;;;;;;5053329;28;20808;-70
2022/05/22 12:08:00;;;;;;;13.67;13.13;;;24.50;1.00;;;;;;5052856;28;20483;-70
2022/05/22 12:10:32;;;;;;;13.13;12.63;;;24.50;1.00;;;;;;5054786;28;20487;-70
2022/05/22 12:13:27;;;;;;;13.93;13.23;;;24.50;1.00;;;;;;5054064;28;20407;-70
2022/05/22 12:16:05;;;;;;;13.60;13.10;;;24.60;1.00;;;;;;5054123;28;20408;-70
2022/05/22 12:18:41;;;;;;;13.70;13.20;;;24.60;1.00;;;;;;5053620;28;20578;-70
2022/05/22 12:21:31;;;;;;;13.80;13.30;;;24.60;1.00;;;;;;5052737;28;20420;-70
2022/05/22 12:24:12;;;;;;;14.10;13.20;;;24.60;1.00;;;;;;5054264;28;20409;-69
2022/05/22 12:26:41;;;;;;;14.80;14.20;;;24.70;1.00;;;;;;5054160;28;20476;-70
2022/05/22 12:29:15;;;;;;;13.60;13.10;;;24.50;1.00;;;;;;5052494;28;20428;-70
2022/05/22 12:31:49;;;;;;;14.20;13.60;;;24.40;1.00;;;;;;5053838;28;20499;-70
2022/05/22 12:34:21;;;;;;;13.47;12.97;;;24.60;1.00;;;;;;5052949;28;20666;-70
2022/05/22 12:36:53;;;;;;;12.93;12.53;;;24.60;1.00;;;;;;5052780;28;20413;-70
2022/05/22 12:39:19;;;;;;;13.43;12.93;;;24.70;1.00;;;;;;5053578;28;20457;-70
2022/05/22 12:41:51;;;;;;;13.30;12.80;;;24.90;1.00;;;;;;5052354;28;20427;-70
2022/05/22 12:44:17;;;;;;;13.50;13.00;;;24.90;1.00;;;;;;5053593;28;20502;-70
2022/05/22 12:46:43;;;;;;;14.30;13.80;;;24.80;1.00;;;;;;5052278;28;20461;-70
2022/05/22 12:49:30;;;;;;;14.10;13.60;;;25.00;1.00;;;;;;5053145;28;20451;-70
2022/05/22 12:52:19;;;;;;;14.23;13.63;;;25.20;1.00;;;;;;5052039;28;20792;-70
2022/05/22 12:54:56;;;;;;;13.80;13.30;;;24.60;1.00;;;;;;5045975;28;21132;-70
2022/05/22 12:57:22;;;;;;;14.20;13.57;;;24.70;1.00;;;;;;5053188;28;20421;-70
2022/05/22 12:59:56;;;;;;;13.70;13.20;;;25.00;1.00;;;;;;5053594;28;20433;-70
2022/05/22 13:02:41;;;;;;;13.60;13.10;;;25.00;1.00;;;;;;5053626;28;20639;-70
2022/05/22 13:05:29;;;;;;;14.50;13.90;;;25.20;1.00;;;;;;5053152;28;20413;-71
2022/05/22 13:07:55;;;;;;;13.80;13.30;;;25.40;1.00;;;;;;5051612;28;20457;-70